sensor_id;sensor_type;location;lat;lon;timestamp;temperature;humidity
43671;DHT22;29267;50.906;7.248;2023-09-30T00:00:44;11.50;99.90
43671;DHT22;29267;50.906;7.248;2023-09-30T00:03:10;11.50;99.90
43671;DHT22;29267;50.906;7.248;2023-09-30T00:05:37;11.50;99.90
43671;DHT22;29267;50.906;7.248;2023-09-30T00:08:03;11.40;99.90
43671;DHT22;29267;50.906;7.248;2023-09-30T00:10:29;11.30;99.90
43671;DHT22;29267;50.906;7.248;2023-09-30T00:12:56;11.30;99.90
43671;DHT22;29267;50.906;7.248;2023-09-30T00:15:22;11.30;99.90
43671;DHT22;29267;50.906;7.248;2023-09-30T00:17:47;11.30;99.90
43671;DHT22;29267;50.906;7.248;2023-09-30T00:20:13;11.30;99.90
43671;DHT22;29267;50.906;7.248;2023-09-30T00:22:40;11.30;99.90
43671;DHT22;29267;50.906;7.248;2023-09-30T00:25:06;11.30;99.90
43671;DHT22;29267;50.906;7.248;2023-09-30T00:27:32;11.20;99.90
43671;DHT22;29267;50.906;7.248;2023-09-30T00:29:58;11.20;99.90
43671;DHT22;29267;50.906;7.248;2023-09-30T00:32:23;11.20;99.90
43671;DHT22;29267;50.906;7.248;2023-09-30T00:34:49;11.20;99.90
43671;DHT22;29267;50.906;7.248;2023-09-30T00:37:16;11.20;99.90
43671;DHT22;29267;50.906;7.248;2023-09-30T00:39:42;11.20;99.90
43671;DHT22;29267;50.906;7.248;2023-09-30T00:42:07;11.20;99.90
43671;DHT22;29267;50.906;7.248;2023-09-30T00:44:33;11.20;99.90
43671;DHT22;29267;50.906;7.248;2023-09-30T00:46:59;11.30;99.90
43671;DHT22;29267;50.906;7.248;2023-09-30T00:49:25;11.20;99.90
43671;DHT22;29267;50.906;7.248;2023-09-30T00:51:51;11.30;99.90
43671;DHT22;29267;50.906;7.248;2023-09-30T00:54:17;11.20;99.90
43671;DHT22;29267;50.906;7.248;2023-09-30T00:56:46;11.30;99.90
43671;DHT22;29267;50.906;7.248;2023-09-30T00:59:13;11.30;99.90
43671;DHT22;29267;50.906;7.248;2023-09-30T01:01:43;11.30;99.90
43671;DHT22;29267;50.906;7.248;2023-09-30T01:04:10;11.30;99.90
43671;DHT22;29267;50.906;7.248;2023-09-30T01:06:36;11.40;99.90
43671;DHT22;29267;50.906;7.248;2023-09-30T01:09:02;11.40;99.90
43671;DHT22;29267;50.906;7.248;2023-09-30T01:11:28;11.40;99.90
43671;DHT22;29267;50.906;7.248;2023-09-30T01:13:54;11.40;99.90
43671;DHT22;29267;50.906;7.248;2023-09-30T01:16:20;11.30;99.90
43671;DHT22;29267;50.906;7.248;2023-09-30T01:18:46;11.30;99.90
43671;DHT22;29267;50.906;7.248;2023-09-30T01:21:12;11.40;99.90
43671;DHT22;29267;50.906;7.248;2023-09-30T01:23:38;11.30;99.90
43671;DHT22;29267;50.906;7.248;2023-09-30T01:26:11;11.30;99.90
43671;DHT22;29267;50.906;7.248;2023-09-30T01:28:38;11.20;99.90
43671;DHT22;29267;50.906;7.248;2023-09-30T01:31:04;11.20;99.90
43671;DHT22;29267;50.906;7.248;2023-09-30T01:33:30;11.20;99.90
43671;DHT22;29267;50.906;7.248;2023-09-30T01:35:56;11.20;99.90
43671;DHT22;29267;50.906;7.248;2023-09-30T01:38:22;11.20;99.90
43671;DHT22;29267;50.906;7.248;2023-09-30T01:40:47;11.20;99.90
43671;DHT22;29267;50.906;7.248;2023-09-30T01:43:14;11.30;99.90
43671;DHT22;29267;50.906;7.248;2023-09-30T01:45:42;11.30;99.90
43671;DHT22;29267;50.906;7.248;2023-09-30T01:48:08;11.30;99.90
43671;DHT22;29267;50.906;7.248;2023-09-30T01:50:40;11.30;99.90
43671;DHT22;29267;50.906;7.248;2023-09-30T01:53:07;11.20;99.90
43671;DHT22;29267;50.906;7.248;2023-09-30T01:55:33;11.20;99.90
43671;DHT22;29267;50.906;7.248;2023-09-30T01:57:59;11.20;99.90
43671;DHT22;29267;50.906;7.248;2023-09-30T02:00:25;11.30;99.90
43671;DHT22;29267;50.906;7.248;2023-09-30T02:02:50;11.20;99.90
43671;DHT22;29267;50.906;7.248;2023-09-30T02:05:16;11.20;99.90
43671;DHT22;29267;50.906;7.248;2023-09-30T02:07:41;11.20;99.90
43671;DHT22;29267;50.906;7.248;2023-09-30T02:10:08;11.20;99.90
43671;DHT22;29267;50.906;7.248;2023-09-30T02:12:33;11.20;99.90
43671;DHT22;29267;50.906;7.248;2023-09-30T02:14:59;11.20;99.90
43671;DHT22;29267;50.906;7.248;2023-09-30T02:17:24;11.20;99.90
43671;DHT22;29267;50.906;7.248;2023-09-30T02:19:50;11.10;99.90
43671;DHT22;29267;50.906;7.248;2023-09-30T02:22:16;11.00;99.90
43671;DHT22;29267;50.906;7.248;2023-09-30T02:24:41;11.00;99.90
43671;DHT22;29267;50.906;7.248;2023-09-30T02:27:07;11.00;99.90
43671;DHT22;29267;50.906;7.248;2023-09-30T02:29:33;11.00;99.90
43671;DHT22;29267;50.906;7.248;2023-09-30T02:31:59;11.00;99.90
43671;DHT22;29267;50.906;7.248;2023-09-30T02:34:24;11.00;99.90
43671;DHT22;29267;50.906;7.248;2023-09-30T02:36:50;11.00;99.90
43671;DHT22;29267;50.906;7.248;2023-09-30T02:39:17;11.00;99.90
43671;DHT22;29267;50.906;7.248;2023-09-30T02:41:43;11.00;99.90
43671;DHT22;29267;50.906;7.248;2023-09-30T02:44:09;10.90;99.90
43671;DHT22;29267;50.906;7.248;2023-09-30T02:46:34;11.00;99.90
43671;DHT22;29267;50.906;7.248;2023-09-30T02:49:03;11.00;99.90
43671;DHT22;29267;50.906;7.248;2023-09-30T02:51:29;11.00;99.90
43671;DHT22;29267;50.906;7.248;2023-09-30T02:53:55;11.10;99.90
43671;DHT22;29267;50.906;7.248;2023-09-30T02:56:21;11.10;99.90
43671;DHT22;29267;50.906;7.248;2023-09-30T02:58:50;11.10;99.90
43671;DHT22;29267;50.906;7.248;2023-09-30T03:01:17;11.20;99.90
43671;DHT22;29267;50.906;7.248;2023-09-30T03:03:43;11.30;99.90
43671;DHT22;29267;50.906;7.248;2023-09-30T03:06:11;11.30;99.90
43671;DHT22;29267;50.906;7.248;2023-09-30T03:08:37;11.40;99.90
43671;DHT22;29267;50.906;7.248;2023-09-30T03:11:03;11.40;99.90
43671;DHT22;29267;50.906;7.248;2023-09-30T03:13:30;11.50;99.90
43671;DHT22;29267;50.906;7.248;2023-09-30T03:15:56;11.50;99.90
43671;DHT22;29267;50.906;7.248;2023-09-30T03:18:22;11.60;99.90
43671;DHT22;29267;50.906;7.248;2023-09-30T03:20:52;11.60;99.90
43671;DHT22;29267;50.906;7.248;2023-09-30T03:23:22;11.60;99.90
43671;DHT22;29267;50.906;7.248;2023-09-30T03:25:47;11.60;99.90
43671;DHT22;29267;50.906;7.248;2023-09-30T03:28:13;11.60;99.90
43671;DHT22;29267;50.906;7.248;2023-09-30T03:30:40;11.60;99.90
43671;DHT22;29267;50.906;7.248;2023-09-30T03:33:05;11.70;99.90
43671;DHT22;29267;50.906;7.248;2023-09-30T03:35:31;11.70;99.90
43671;DHT22;29267;50.906;7.248;2023-09-30T03:37:57;11.70;99.90
43671;DHT22;29267;50.906;7.248;2023-09-30T03:40:23;11.70;99.90
43671;DHT22;29267;50.906;7.248;2023-09-30T03:42:54;11.60;99.90
43671;DHT22;29267;50.906;7.248;2023-09-30T03:45:20;11.50;99.90
43671;DHT22;29267;50.906;7.248;2023-09-30T03:47:45;11.50;99.90
43671;DHT22;29267;50.906;7.248;2023-09-30T03:50:13;11.40;99.90
43671;DHT22;29267;50.906;7.248;2023-09-30T03:52:41;11.40;99.90
43671;DHT22;29267;50.906;7.248;2023-09-30T03:55:13;11.30;99.90
43671;DHT22;29267;50.906;7.248;2023-09-30T03:57:41;11.30;99.90
43671;DHT22;29267;50.906;7.248;2023-09-30T04:00:07;11.30;99.90
43671;DHT22;29267;50.906;7.248;2023-09-30T04:02:33;11.30;99.90
43671;DHT22;29267;50.906;7.248;2023-09-30T04:04:59;11.30;99.90
43671;DHT22;29267;50.906;7.248;2023-09-30T04:07:25;11.30;99.90
43671;DHT22;29267;50.906;7.248;2023-09-30T04:09:55;11.30;99.90
43671;DHT22;29267;50.906;7.248;2023-09-30T04:12:22;11.40;99.90
43671;DHT22;29267;50.906;7.248;2023-09-30T04:14:51;11.40;99.90
43671;DHT22;29267;50.906;7.248;2023-09-30T04:17:17;11.40;99.90
43671;DHT22;29267;50.906;7.248;2023-09-30T04:19:43;11.40;99.90
43671;DHT22;29267;50.906;7.248;2023-09-30T04:22:08;11.40;99.90
43671;DHT22;29267;50.906;7.248;2023-09-30T04:24:34;11.40;99.90
43671;DHT22;29267;50.906;7.248;2023-09-30T04:27:00;11.40;99.90
43671;DHT22;29267;50.906;7.248;2023-09-30T04:29:29;11.30;99.90
43671;DHT22;29267;50.906;7.248;2023-09-30T04:31:55;11.30;99.90
43671;DHT22;29267;50.906;7.248;2023-09-30T04:34:21;11.40;99.90
43671;DHT22;29267;50.906;7.248;2023-09-30T04:36:47;11.40;99.90
43671;DHT22;29267;50.906;7.248;2023-09-30T04:39:13;11.40;99.90
43671;DHT22;29267;50.906;7.248;2023-09-30T04:41:40;11.30;99.90
43671;DHT22;29267;50.906;7.248;2023-09-30T04:44:07;11.40;99.90
43671;DHT22;29267;50.906;7.248;2023-09-30T04:46:35;11.40;99.90
43671;DHT22;29267;50.906;7.248;2023-09-30T04:49:01;11.40;99.90
43671;DHT22;29267;50.906;7.248;2023-09-30T04:51:30;11.50;99.90
43671;DHT22;29267;50.906;7.248;2023-09-30T04:53:58;11.50;99.90
43671;DHT22;29267;50.906;7.248;2023-09-30T04:56:25;11.50;99.90
43671;DHT22;29267;50.906;7.248;2023-09-30T04:58:50;11.60;99.90
43671;DHT22;29267;50.906;7.248;2023-09-30T05:01:16;11.60;99.90
43671;DHT22;29267;50.906;7.248;2023-09-30T05:03:47;11.50;99.90
43671;DHT22;29267;50.906;7.248;2023-09-30T05:06:16;11.50;99.90
43671;DHT22;29267;50.906;7.248;2023-09-30T05:08:41;11.40;99.90
43671;DHT22;29267;50.906;7.248;2023-09-30T05:11:07;11.30;99.90
43671;DHT22;29267;50.906;7.248;2023-09-30T05:13:33;11.30;99.90
43671;DHT22;29267;50.906;7.248;2023-09-30T05:16:02;11.30;99.90
43671;DHT22;29267;50.906;7.248;2023-09-30T05:18:28;11.30;99.90
43671;DHT22;29267;50.906;7.248;2023-09-30T05:20:55;11.30;99.90
43671;DHT22;29267;50.906;7.248;2023-09-30T05:23:20;11.30;99.90
43671;DHT22;29267;50.906;7.248;2023-09-30T05:25:46;11.30;99.90
43671;DHT22;29267;50.906;7.248;2023-09-30T05:28:11;11.30;99.90
43671;DHT22;29267;50.906;7.248;2023-09-30T05:30:39;11.20;99.90
43671;DHT22;29267;50.906;7.248;2023-09-30T05:33:06;11.30;99.90
43671;DHT22;29267;50.906;7.248;2023-09-30T05:35:32;11.30;99.90
43671;DHT22;29267;50.906;7.248;2023-09-30T05:37:57;11.40;99.90
43671;DHT22;29267;50.906;7.248;2023-09-30T05:40:23;11.30;99.90
43671;DHT22;29267;50.906;7.248;2023-09-30T05:42:56;11.40;99.90
43671;DHT22;29267;50.906;7.248;2023-09-30T05:45:27;11.30;99.90
43671;DHT22;29267;50.906;7.248;2023-09-30T05:47:53;11.30;99.90
43671;DHT22;29267;50.906;7.248;2023-09-30T05:50:20;11.30;99.90
43671;DHT22;29267;50.906;7.248;2023-09-30T05:52:53;11.40;99.90
43671;DHT22;29267;50.906;7.248;2023-09-30T05:55:20;11.40;99.90
43671;DHT22;29267;50.906;7.248;2023-09-30T05:57:47;11.40;99.90
43671;DHT22;29267;50.906;7.248;2023-09-30T06:00:13;11.40;99.90
43671;DHT22;29267;50.906;7.248;2023-09-30T06:02:59;11.40;99.90
43671;DHT22;29267;50.906;7.248;2023-09-30T06:05:25;11.40;99.90
43671;DHT22;29267;50.906;7.248;2023-09-30T06:07:52;11.30;99.90
43671;DHT22;29267;50.906;7.248;2023-09-30T06:10:19;11.40;99.90
43671;DHT22;29267;50.906;7.248;2023-09-30T06:12:50;11.40;99.90
43671;DHT22;29267;50.906;7.248;2023-09-30T06:15:20;11.40;99.90
43671;DHT22;29267;50.906;7.248;2023-09-30T06:17:50;11.40;99.90
43671;DHT22;29267;50.906;7.248;2023-09-30T06:20:20;11.40;99.90
43671;DHT22;29267;50.906;7.248;2023-09-30T06:22:48;11.50;99.90
43671;DHT22;29267;50.906;7.248;2023-09-30T06:25:19;11.60;99.90
43671;DHT22;29267;50.906;7.248;2023-09-30T06:27:45;11.60;99.90
43671;DHT22;29267;50.906;7.248;2023-09-30T06:30:11;11.60;99.90
43671;DHT22;29267;50.906;7.248;2023-09-30T06:32:39;11.70;99.90
43671;DHT22;29267;50.906;7.248;2023-09-30T06:35:06;11.70;99.90
43671;DHT22;29267;50.906;7.248;2023-09-30T06:37:32;11.70;99.90
43671;DHT22;29267;50.906;7.248;2023-09-30T06:39:58;11.80;99.90
43671;DHT22;29267;50.906;7.248;2023-09-30T06:42:24;11.80;99.90
43671;DHT22;29267;50.906;7.248;2023-09-30T06:44:50;11.80;99.90
43671;DHT22;29267;50.906;7.248;2023-09-30T06:47:16;11.90;99.90
43671;DHT22;29267;50.906;7.248;2023-09-30T06:49:41;12.00;99.90
43671;DHT22;29267;50.906;7.248;2023-09-30T06:52:07;12.00;99.90
43671;DHT22;29267;50.906;7.248;2023-09-30T06:54:33;12.10;99.90
43671;DHT22;29267;50.906;7.248;2023-09-30T06:56:58;12.10;99.90
43671;DHT22;29267;50.906;7.248;2023-09-30T06:59:25;12.10;99.90
43671;DHT22;29267;50.906;7.248;2023-09-30T07:01:51;12.20;99.90
43671;DHT22;29267;50.906;7.248;2023-09-30T07:04:16;12.30;99.90
43671;DHT22;29267;50.906;7.248;2023-09-30T07:06:42;12.30;99.90
43671;DHT22;29267;50.906;7.248;2023-09-30T07:09:08;12.60;99.90
43671;DHT22;29267;50.906;7.248;2023-09-30T07:11:35;12.70;99.90
43671;DHT22;29267;50.906;7.248;2023-09-30T07:14:01;12.70;99.90
43671;DHT22;29267;50.906;7.248;2023-09-30T07:16:26;12.70;99.90
43671;DHT22;29267;50.906;7.248;2023-09-30T07:18:52;12.70;99.90
43671;DHT22;29267;50.906;7.248;2023-09-30T07:21:18;12.90;99.90
43671;DHT22;29267;50.906;7.248;2023-09-30T07:23:43;13.00;99.90
43671;DHT22;29267;50.906;7.248;2023-09-30T07:26:09;13.00;99.90
43671;DHT22;29267;50.906;7.248;2023-09-30T07:28:34;13.10;99.90
43671;DHT22;29267;50.906;7.248;2023-09-30T07:31:00;13.20;99.90
43671;DHT22;29267;50.906;7.248;2023-09-30T07:33:26;13.20;99.90
43671;DHT22;29267;50.906;7.248;2023-09-30T07:35:51;13.20;99.90
43671;DHT22;29267;50.906;7.248;2023-09-30T07:38:17;13.30;99.90
43671;DHT22;29267;50.906;7.248;2023-09-30T07:40:43;13.20;99.90
43671;DHT22;29267;50.906;7.248;2023-09-30T07:43:08;13.50;99.90
43671;DHT22;29267;50.906;7.248;2023-09-30T07:45:34;13.60;99.90
43671;DHT22;29267;50.906;7.248;2023-09-30T07:48:00;13.60;99.90
43671;DHT22;29267;50.906;7.248;2023-09-30T07:50:28;13.50;99.90
43671;DHT22;29267;50.906;7.248;2023-09-30T07:52:54;13.50;99.90
43671;DHT22;29267;50.906;7.248;2023-09-30T07:55:19;13.80;99.90
43671;DHT22;29267;50.906;7.248;2023-09-30T07:57:45;13.90;99.90
43671;DHT22;29267;50.906;7.248;2023-09-30T08:00:12;14.20;99.90
43671;DHT22;29267;50.906;7.248;2023-09-30T08:02:41;14.60;99.90
43671;DHT22;29267;50.906;7.248;2023-09-30T08:05:07;14.70;99.90
43671;DHT22;29267;50.906;7.248;2023-09-30T08:07:33;15.10;99.90
43671;DHT22;29267;50.906;7.248;2023-09-30T08:09:59;15.00;99.90
43671;DHT22;29267;50.906;7.248;2023-09-30T08:12:25;15.00;99.90
43671;DHT22;29267;50.906;7.248;2023-09-30T08:14:51;15.10;99.90
43671;DHT22;29267;50.906;7.248;2023-09-30T08:17:19;15.30;99.90
43671;DHT22;29267;50.906;7.248;2023-09-30T08:19:45;15.30;99.90
43671;DHT22;29267;50.906;7.248;2023-09-30T08:22:13;15.50;99.90
43671;DHT22;29267;50.906;7.248;2023-09-30T08:24:39;15.40;99.90
43671;DHT22;29267;50.906;7.248;2023-09-30T08:27:04;15.40;99.90
43671;DHT22;29267;50.906;7.248;2023-09-30T08:29:33;15.50;99.90
43671;DHT22;29267;50.906;7.248;2023-09-30T08:32:01;15.50;99.90
43671;DHT22;29267;50.906;7.248;2023-09-30T08:34:27;15.50;99.90
43671;DHT22;29267;50.906;7.248;2023-09-30T08:36:54;15.70;99.90
43671;DHT22;29267;50.906;7.248;2023-09-30T08:39:19;15.90;99.90
43671;DHT22;29267;50.906;7.248;2023-09-30T08:41:45;16.70;99.90
43671;DHT22;29267;50.906;7.248;2023-09-30T08:44:11;16.90;99.90
43671;DHT22;29267;50.906;7.248;2023-09-30T08:46:39;16.80;99.90
43671;DHT22;29267;50.906;7.248;2023-09-30T08:49:05;16.20;99.90
43671;DHT22;29267;50.906;7.248;2023-09-30T08:51:35;15.90;99.90
43671;DHT22;29267;50.906;7.248;2023-09-30T08:54:01;15.80;99.90
43671;DHT22;29267;50.906;7.248;2023-09-30T08:56:31;16.10;99.90
43671;DHT22;29267;50.906;7.248;2023-09-30T08:59:01;16.50;99.90
43671;DHT22;29267;50.906;7.248;2023-09-30T09:01:28;16.40;99.90
43671;DHT22;29267;50.906;7.248;2023-09-30T09:03:55;16.40;99.90
43671;DHT22;29267;50.906;7.248;2023-09-30T09:06:25;16.40;99.90
43671;DHT22;29267;50.906;7.248;2023-09-30T09:08:51;16.60;99.90
43671;DHT22;29267;50.906;7.248;2023-09-30T09:11:18;16.70;99.90
43671;DHT22;29267;50.906;7.248;2023-09-30T09:13:51;16.80;99.90
43671;DHT22;29267;50.906;7.248;2023-09-30T09:16:21;17.20;99.90
43671;DHT22;29267;50.906;7.248;2023-09-30T09:18:47;17.70;99.90
43671;DHT22;29267;50.906;7.248;2023-09-30T09:21:13;18.10;99.90
43671;DHT22;29267;50.906;7.248;2023-09-30T09:23:43;18.40;99.90
43671;DHT22;29267;50.906;7.248;2023-09-30T09:28:56;18.90;99.90
43671;DHT22;29267;50.906;7.248;2023-09-30T09:31:24;19.30;99.90
43671;DHT22;29267;50.906;7.248;2023-09-30T09:33:50;20.20;99.90
43671;DHT22;29267;50.906;7.248;2023-09-30T09:36:17;20.80;99.90
43671;DHT22;29267;50.906;7.248;2023-09-30T09:38:50;21.00;99.90
43671;DHT22;29267;50.906;7.248;2023-09-30T09:41:19;21.40;99.90
43671;DHT22;29267;50.906;7.248;2023-09-30T09:43:47;20.70;99.90
43671;DHT22;29267;50.906;7.248;2023-09-30T09:46:13;20.80;99.90
43671;DHT22;29267;50.906;7.248;2023-09-30T09:48:39;21.60;99.90
43671;DHT22;29267;50.906;7.248;2023-09-30T09:51:05;21.20;99.90
43671;DHT22;29267;50.906;7.248;2023-09-30T09:53:35;20.60;99.90
43671;DHT22;29267;50.906;7.248;2023-09-30T09:56:03;20.70;99.90
43671;DHT22;29267;50.906;7.248;2023-09-30T09:58:33;20.70;99.90
43671;DHT22;29267;50.906;7.248;2023-09-30T10:01:01;20.90;99.90
43671;DHT22;29267;50.906;7.248;2023-09-30T10:03:27;20.90;99.90
43671;DHT22;29267;50.906;7.248;2023-09-30T10:05:53;20.80;99.90
43671;DHT22;29267;50.906;7.248;2023-09-30T10:08:21;20.10;99.90
43671;DHT22;29267;50.906;7.248;2023-09-30T10:10:54;20.00;99.90
43671;DHT22;29267;50.906;7.248;2023-09-30T10:16:47;19.90;99.90
43671;DHT22;29267;50.906;7.248;2023-09-30T10:19:20;19.80;99.90
43671;DHT22;29267;50.906;7.248;2023-09-30T10:24:45;19.40;99.90
43671;DHT22;29267;50.906;7.248;2023-09-30T10:35:21;18.80;99.90
43671;DHT22;29267;50.906;7.248;2023-09-30T10:40:48;19.30;99.90
43671;DHT22;29267;50.906;7.248;2023-09-30T10:43:29;19.60;99.90
43671;DHT22;29267;50.906;7.248;2023-09-30T10:45:59;19.40;99.90
43671;DHT22;29267;50.906;7.248;2023-09-30T10:51:13;19.80;99.90
43671;DHT22;29267;50.906;7.248;2023-09-30T10:54:00;19.70;99.90
43671;DHT22;29267;50.906;7.248;2023-09-30T10:56:32;19.50;99.90
43671;DHT22;29267;50.906;7.248;2023-09-30T10:58:58;19.30;99.90
43671;DHT22;29267;50.906;7.248;2023-09-30T11:01:25;19.30;99.90
43671;DHT22;29267;50.906;7.248;2023-09-30T11:04:02;19.30;99.90
43671;DHT22;29267;50.906;7.248;2023-09-30T11:06:30;19.20;99.90
43671;DHT22;29267;50.906;7.248;2023-09-30T11:08:58;19.40;99.90
43671;DHT22;29267;50.906;7.248;2023-09-30T11:11:41;19.40;99.90
43671;DHT22;29267;50.906;7.248;2023-09-30T11:14:27;19.20;99.90
43671;DHT22;29267;50.906;7.248;2023-09-30T11:16:56;19.30;99.90
43671;DHT22;29267;50.906;7.248;2023-09-30T11:19:22;19.20;99.90
43671;DHT22;29267;50.906;7.248;2023-09-30T11:21:49;19.50;99.90
43671;DHT22;29267;50.906;7.248;2023-09-30T11:24:15;19.70;99.90
43671;DHT22;29267;50.906;7.248;2023-09-30T11:26:41;19.80;99.90
43671;DHT22;29267;50.906;7.248;2023-09-30T11:29:10;19.60;99.90
43671;DHT22;29267;50.906;7.248;2023-09-30T11:31:45;19.30;99.90
43671;DHT22;29267;50.906;7.248;2023-09-30T11:34:12;19.10;99.90
43671;DHT22;29267;50.906;7.248;2023-09-30T11:36:40;19.00;99.90
43671;DHT22;29267;50.906;7.248;2023-09-30T11:39:08;19.10;99.90
43671;DHT22;29267;50.906;7.248;2023-09-30T11:41:36;19.20;99.90
43671;DHT22;29267;50.906;7.248;2023-09-30T11:44:11;19.50;99.90
43671;DHT22;29267;50.906;7.248;2023-09-30T11:46:50;19.60;99.90
43671;DHT22;29267;50.906;7.248;2023-09-30T11:49:40;19.50;99.90
43671;DHT22;29267;50.906;7.248;2023-09-30T11:52:11;19.60;99.90
43671;DHT22;29267;50.906;7.248;2023-09-30T11:57:07;19.80;99.90
43671;DHT22;29267;50.906;7.248;2023-09-30T11:59:35;19.70;99.90
43671;DHT22;29267;50.906;7.248;2023-09-30T12:02:01;19.60;99.90
43671;DHT22;29267;50.906;7.248;2023-09-30T12:04:29;19.50;99.90
43671;DHT22;29267;50.906;7.248;2023-09-30T12:06:55;19.50;99.90
43671;DHT22;29267;50.906;7.248;2023-09-30T12:09:22;19.80;99.90
43671;DHT22;29267;50.906;7.248;2023-09-30T12:11:49;20.00;99.90
43671;DHT22;29267;50.906;7.248;2023-09-30T12:14:14;19.90;99.90
43671;DHT22;29267;50.906;7.248;2023-09-30T12:16:41;20.20;99.90
43671;DHT22;29267;50.906;7.248;2023-09-30T12:19:07;20.10;99.90
43671;DHT22;29267;50.906;7.248;2023-09-30T12:21:33;20.00;99.90
43671;DHT22;29267;50.906;7.248;2023-09-30T12:24:00;19.80;99.90
43671;DHT22;29267;50.906;7.248;2023-09-30T12:26:26;19.70;99.90
43671;DHT22;29267;50.906;7.248;2023-09-30T12:28:52;19.60;99.90
43671;DHT22;29267;50.906;7.248;2023-09-30T12:31:18;19.50;99.90
43671;DHT22;29267;50.906;7.248;2023-09-30T12:33:45;19.50;99.90
43671;DHT22;29267;50.906;7.248;2023-09-30T12:36:15;19.50;99.80
43671;DHT22;29267;50.906;7.248;2023-09-30T12:38:42;19.60;99.60
43671;DHT22;29267;50.906;7.248;2023-09-30T12:41:08;19.70;99.10
43671;DHT22;29267;50.906;7.248;2023-09-30T12:43:33;19.80;99.80
43671;DHT22;29267;50.906;7.248;2023-09-30T12:45:59;19.80;99.90
43671;DHT22;29267;50.906;7.248;2023-09-30T12:48:25;19.80;99.90
43671;DHT22;29267;50.906;7.248;2023-09-30T12:50:50;19.80;99.90
43671;DHT22;29267;50.906;7.248;2023-09-30T12:53:16;19.80;99.90
43671;DHT22;29267;50.906;7.248;2023-09-30T12:55:42;19.60;99.40
43671;DHT22;29267;50.906;7.248;2023-09-30T12:58:07;19.70;99.00
43671;DHT22;29267;50.906;7.248;2023-09-30T13:00:34;19.80;98.40
43671;DHT22;29267;50.906;7.248;2023-09-30T13:03:01;19.80;99.30
43671;DHT22;29267;50.906;7.248;2023-09-30T13:05:27;19.70;98.30
43671;DHT22;29267;50.906;7.248;2023-09-30T13:07:58;19.70;99.90
43671;DHT22;29267;50.906;7.248;2023-09-30T13:10:24;19.60;97.90
43671;DHT22;29267;50.906;7.248;2023-09-30T13:12:50;19.60;98.30
43671;DHT22;29267;50.906;7.248;2023-09-30T13:15:16;19.60;99.40
43671;DHT22;29267;50.906;7.248;2023-09-30T13:17:45;19.70;99.60
43671;DHT22;29267;50.906;7.248;2023-09-30T13:20:11;19.90;99.40
43671;DHT22;29267;50.906;7.248;2023-09-30T13:22:40;19.90;99.20
43671;DHT22;29267;50.906;7.248;2023-09-30T13:25:06;20.00;98.20
43671;DHT22;29267;50.906;7.248;2023-09-30T13:27:33;20.00;98.30
43671;DHT22;29267;50.906;7.248;2023-09-30T13:29:59;20.00;98.40
43671;DHT22;29267;50.906;7.248;2023-09-30T13:32:26;20.30;97.20
43671;DHT22;29267;50.906;7.248;2023-09-30T13:34:52;20.20;98.40
43671;DHT22;29267;50.906;7.248;2023-09-30T13:37:18;20.30;98.00
43671;DHT22;29267;50.906;7.248;2023-09-30T13:39:43;20.40;97.80
43671;DHT22;29267;50.906;7.248;2023-09-30T13:42:09;20.50;97.50
43671;DHT22;29267;50.906;7.248;2023-09-30T13:44:35;20.50;97.60
43671;DHT22;29267;50.906;7.248;2023-09-30T13:47:02;20.50;97.30
43671;DHT22;29267;50.906;7.248;2023-09-30T13:49:28;20.50;99.90
43671;DHT22;29267;50.906;7.248;2023-09-30T13:51:53;20.60;97.20
43671;DHT22;29267;50.906;7.248;2023-09-30T13:54:19;20.60;97.10
43671;DHT22;29267;50.906;7.248;2023-09-30T13:56:45;20.60;96.30
43671;DHT22;29267;50.906;7.248;2023-09-30T13:59:10;20.50;97.00
43671;DHT22;29267;50.906;7.248;2023-09-30T14:01:36;20.40;98.20
43671;DHT22;29267;50.906;7.248;2023-09-30T14:04:02;20.30;98.10
43671;DHT22;29267;50.906;7.248;2023-09-30T14:06:29;20.30;98.60
43671;DHT22;29267;50.906;7.248;2023-09-30T14:08:55;20.30;98.10
43671;DHT22;29267;50.906;7.248;2023-09-30T14:11:20;20.10;98.90
43671;DHT22;29267;50.906;7.248;2023-09-30T14:13:46;20.00;99.40
43671;DHT22;29267;50.906;7.248;2023-09-30T14:16:12;19.70;99.90
43671;DHT22;29267;50.906;7.248;2023-09-30T14:18:37;19.50;99.90
43671;DHT22;29267;50.906;7.248;2023-09-30T14:21:05;19.30;99.90
43671;DHT22;29267;50.906;7.248;2023-09-30T14:23:30;19.00;99.90
43671;DHT22;29267;50.906;7.248;2023-09-30T14:25:56;18.90;99.90
43671;DHT22;29267;50.906;7.248;2023-09-30T14:28:22;18.80;99.90
43671;DHT22;29267;50.906;7.248;2023-09-30T14:30:48;18.60;99.90
43671;DHT22;29267;50.906;7.248;2023-09-30T14:33:16;18.60;99.90
43671;DHT22;29267;50.906;7.248;2023-09-30T14:35:42;18.50;99.90
43671;DHT22;29267;50.906;7.248;2023-09-30T14:38:09;18.60;99.90
43671;DHT22;29267;50.906;7.248;2023-09-30T14:40:37;18.60;99.90
43671;DHT22;29267;50.906;7.248;2023-09-30T14:43:09;18.50;99.90
43671;DHT22;29267;50.906;7.248;2023-09-30T14:45:41;18.40;99.90
43671;DHT22;29267;50.906;7.248;2023-09-30T14:48:10;18.30;99.90
43671;DHT22;29267;50.906;7.248;2023-09-30T14:50:36;18.30;99.90
43671;DHT22;29267;50.906;7.248;2023-09-30T14:53:02;18.30;99.90
43671;DHT22;29267;50.906;7.248;2023-09-30T14:55:28;18.20;99.90
43671;DHT22;29267;50.906;7.248;2023-09-30T14:57:55;18.20;99.90
43671;DHT22;29267;50.906;7.248;2023-09-30T15:00:21;18.20;99.90
43671;DHT22;29267;50.906;7.248;2023-09-30T15:02:50;18.10;99.90
43671;DHT22;29267;50.906;7.248;2023-09-30T15:05:15;18.10;99.90
43671;DHT22;29267;50.906;7.248;2023-09-30T15:07:42;18.10;99.90
43671;DHT22;29267;50.906;7.248;2023-09-30T15:10:08;18.20;99.90
43671;DHT22;29267;50.906;7.248;2023-09-30T15:12:34;18.20;99.90
43671;DHT22;29267;50.906;7.248;2023-09-30T15:15:00;18.10;99.90
43671;DHT22;29267;50.906;7.248;2023-09-30T15:17:26;18.00;99.90
43671;DHT22;29267;50.906;7.248;2023-09-30T15:19:51;17.90;99.90
43671;DHT22;29267;50.906;7.248;2023-09-30T15:22:18;17.90;99.90
43671;DHT22;29267;50.906;7.248;2023-09-30T15:24:43;17.90;99.90
43671;DHT22;29267;50.906;7.248;2023-09-30T15:27:09;17.90;99.90
43671;DHT22;29267;50.906;7.248;2023-09-30T15:29:35;17.80;99.90
43671;DHT22;29267;50.906;7.248;2023-09-30T15:32:02;17.70;99.90
43671;DHT22;29267;50.906;7.248;2023-09-30T15:34:28;17.80;99.90
43671;DHT22;29267;50.906;7.248;2023-09-30T15:36:54;17.70;99.90
43671;DHT22;29267;50.906;7.248;2023-09-30T15:39:19;17.70;99.90
43671;DHT22;29267;50.906;7.248;2023-09-30T15:41:45;17.60;99.90
43671;DHT22;29267;50.906;7.248;2023-09-30T15:44:10;17.60;99.90
43671;DHT22;29267;50.906;7.248;2023-09-30T15:46:36;17.50;99.90
43671;DHT22;29267;50.906;7.248;2023-09-30T15:49:01;17.50;99.90
43671;DHT22;29267;50.906;7.248;2023-09-30T15:51:27;17.50;99.90
43671;DHT22;29267;50.906;7.248;2023-09-30T15:53:53;17.30;99.90